Time;durP1;ratioP1;P1;durP2;ratioP2;P2;SDS_P1;SDS_P2;PMS_P1;PMS_P2;Temp;Humidity;BMP_temperature;BMP_pressure;BME280_temperature;BME280_humidity;BME280_pressure;Samples;Min_cycle;Max_cycle;Signal;HPM_P1;HPM_P2
2021/03/04 00:00:26;;;;;;;;;;;12.80;75.80;;;;;;4246834;33;20028;-77
2021/03/04 00:02:56;;;;;;;;;;;12.80;75.50;;;;;;4245576;33;20019;-77
2021/03/04 00:05:25;;;;;;;;;;;12.80;75.60;;;;;;4245984;33;35446;-78
2021/03/04 00:07:55;;;;;;;;;;;12.70;75.50;;;;;;4245683;33;35026;-77
2021/03/04 00:10:22;;;;;;;;;;;12.70;75.60;;;;;;4245420;33;33067;-77
2021/03/04 00:12:52;;;;;;;;;;;12.70;75.50;;;;;;4245376;33;20030;-77
2021/03/04 00:15:21;;;;;;;;;;;12.70;75.70;;;;;;4244675;33;37813;-77
2021/03/04 00:17:51;;;;;;;;;;;12.70;75.80;;;;;;4244654;33;37041;-77
2021/03/04 00:20:23;;;;;;;;;;;12.70;75.90;;;;;;4245525;33;20015;-77
2021/03/04 00:22:50;;;;;;;;;;;12.70;75.90;;;;;;4245940;33;20072;-77
2021/03/04 00:25:20;;;;;;;;;;;12.70;76.00;;;;;;4245492;33;20049;-77
2021/03/04 00:27:49;;;;;;;;;;;12.70;76.10;;;;;;4245839;33;29365;-77
2021/03/04 00:30:17;;;;;;;;;;;12.70;76.10;;;;;;4245955;33;28577;-77
2021/03/04 00:32:44;;;;;;;;;;;12.70;76.30;;;;;;4244395;33;30777;-77
2021/03/04 00:35:13;;;;;;;;;;;12.60;76.30;;;;;;4244275;33;34978;-77
2021/03/04 00:37:45;;;;;;;;;;;12.60;76.40;;;;;;4244959;33;20007;-77
2021/03/04 00:40:14;;;;;;;;;;;12.60;76.30;;;;;;4245725;33;28381;-77
2021/03/04 00:42:44;;;;;;;;;;;12.60;76.50;;;;;;4245464;33;20018;-77
2021/03/04 00:45:14;;;;;;;;;;;12.60;76.50;;;;;;4246588;33;20070;-77
2021/03/04 00:47:49;;;;;;;;;;;12.60;76.50;;;;;;4246553;33;20023;-77
2021/03/04 00:50:17;;;;;;;;;;;12.60;76.60;;;;;;4244327;33;27428;-77
2021/03/04 00:52:44;;;;;;;;;;;12.60;77.30;;;;;;4245217;33;36854;-77
2021/03/04 00:55:11;;;;;;;;;;;12.50;76.70;;;;;;4246281;33;20079;-77
2021/03/04 00:57:38;;;;;;;;;;;12.50;76.80;;;;;;4246596;33;20078;-77
2021/03/04 01:00:06;;;;;;;;;;;12.50;76.70;;;;;;4244066;33;31437;-77
2021/03/04 01:02:33;;;;;;;;;;;12.50;76.80;;;;;;4245946;33;20022;-77
2021/03/04 01:05:04;;;;;;;;;;;12.50;76.80;;;;;;4244710;33;20016;-78
2021/03/04 01:07:34;;;;;;;;;;;12.50;76.80;;;;;;4245799;33;20012;-78
2021/03/04 01:10:03;;;;;;;;;;;12.40;76.90;;;;;;4243647;33;32188;-77
2021/03/04 01:12:32;;;;;;;;;;;12.40;76.90;;;;;;4245992;33;20051;-77
2021/03/04 01:14:59;;;;;;;;;;;12.40;77.00;;;;;;4246077;33;20007;-77
2021/03/04 01:17:26;;;;;;;;;;;12.40;77.10;;;;;;4244850;33;20011;-77
2021/03/04 01:19:55;;;;;;;;;;;12.40;77.20;;;;;;4244537;33;20050;-77
2021/03/04 01:22:22;;;;;;;;;;;12.40;77.10;;;;;;4233405;33;20517;-78
2021/03/04 01:24:52;;;;;;;;;;;12.40;77.10;;;;;;4244500;33;20009;-78
2021/03/04 01:27:21;;;;;;;;;;;12.40;77.20;;;;;;4256425;33;20018;-78
2021/03/04 01:29:51;;;;;;;;;;;12.30;77.40;;;;;;4232647;33;20014;-78
2021/03/04 01:32:18;;;;;;;;;;;12.40;77.30;;;;;;4244330;33;38745;-78
2021/03/04 01:34:48;;;;;;;;;;;12.30;77.40;;;;;;4243818;33;34059;-78
2021/03/04 01:37:14;;;;;;;;;;;12.30;77.30;;;;;;4244903;33;39789;-77
2021/03/04 01:39:44;;;;;;;;;;;12.30;77.60;;;;;;4243671;33;28021;-77
2021/03/04 01:42:12;;;;;;;;;;;12.30;77.70;;;;;;4244442;33;41378;-77
2021/03/04 01:44:42;;;;;;;;;;;12.30;77.80;;;;;;4243234;33;36725;-78
2021/03/04 01:47:08;;;;;;;;;;;12.30;77.60;;;;;;4243758;33;32230;-78
2021/03/04 01:49:39;;;;;;;;;;;12.30;77.70;;;;;;4244436;33;30017;-77
2021/03/04 01:52:10;;;;;;;;;;;12.30;77.70;;;;;;4245452;33;20022;-78
2021/03/04 01:54:42;;;;;;;;;;;12.30;77.70;;;;;;4231929;33;35371;-78
2021/03/04 01:57:11;;;;;;;;;;;12.30;77.70;;;;;;4243550;33;36888;-77
2021/03/04 01:59:37;;;;;;;;;;;12.30;78.10;;;;;;4244762;33;38843;-77
2021/03/04 02:02:04;;;;;;;;;;;12.20;77.70;;;;;;4247251;33;37194;-78
2021/03/04 02:04:36;;;;;;;;;;;12.30;77.80;;;;;;4246329;33;41566;-78
2021/03/04 02:07:09;;;;;;;;;;;12.30;77.80;;;;;;4234966;33;30491;-77
2021/03/04 02:09:38;;;;;;;;;;;12.20;77.80;;;;;;4247482;33;20027;-78
2021/03/04 02:12:07;;;;;;;;;;;12.20;77.90;;;;;;4247278;33;20075;-77
2021/03/04 02:14:44;;;;;;;;;;;12.20;78.30;;;;;;4247451;33;20016;-78
2021/03/04 02:17:14;;;;;;;;;;;12.20;78.10;;;;;;4248439;33;20007;-78
2021/03/04 02:19:58;;;;;;;;;;;12.20;78.10;;;;;;4247478;33;20008;-78
2021/03/04 02:22:24;;;;;;;;;;;12.20;78.20;;;;;;4247113;33;20041;-78
2021/03/04 02:24:59;;;;;;;;;;;12.10;78.30;;;;;;4246988;33;20000;-78
2021/03/04 02:27:29;;;;;;;;;;;12.20;78.50;;;;;;4258954;33;20007;-78
2021/03/04 02:30:15;;;;;;;;;;;12.10;78.40;;;;;;4248327;33;20056;-78
2021/03/04 02:32:44;;;;;;;;;;;12.10;78.40;;;;;;4247062;33;20004;-78
2021/03/04 02:35:11;;;;;;;;;;;12.10;79.00;;;;;;4248124;33;20008;-78
2021/03/04 02:37:41;;;;;;;;;;;12.10;79.40;;;;;;4247123;33;20162;-78
2021/03/04 02:40:13;;;;;;;;;;;12.00;79.60;;;;;;4247687;33;20138;-78
2021/03/04 02:42:43;;;;;;;;;;;12.00;80.00;;;;;;4235318;33;20000;-78
2021/03/04 02:45:11;;;;;;;;;;;11.90;79.60;;;;;;4246594;33;20051;-78
2021/03/04 02:47:38;;;;;;;;;;;11.90;79.50;;;;;;4248115;33;20055;-78
2021/03/04 02:50:09;;;;;;;;;;;11.90;80.00;;;;;;4235051;33;20436;-79
2021/03/04 02:52:38;;;;;;;;;;;11.80;79.80;;;;;;4247885;33;20083;-77
2021/03/04 02:55:06;;;;;;;;;;;11.80;80.00;;;;;;4247029;33;20070;-78
2021/03/04 02:57:39;;;;;;;;;;;11.80;80.30;;;;;;4247909;33;20349;-78
2021/03/04 03:00:09;;;;;;;;;;;11.80;79.90;;;;;;4246559;33;19992;-78
2021/03/04 03:02:36;;;;;;;;;;;11.80;80.10;;;;;;4246305;33;20035;-78
2021/03/04 03:05:04;;;;;;;;;;;11.80;80.70;;;;;;4246955;33;20451;-78
2021/03/04 03:07:32;;;;;;;;;;;11.80;80.80;;;;;;4246175;33;20008;-78
2021/03/04 03:10:00;;;;;;;;;;;11.70;80.30;;;;;;4247420;33;20009;-78
2021/03/04 03:12:27;;;;;;;;;;;11.70;80.50;;;;;;4246563;33;20018;-78
2021/03/04 03:14:57;;;;;;;;;;;11.70;80.40;;;;;;4234863;33;20000;-78
2021/03/04 03:17:23;;;;;;;;;;;11.70;80.60;;;;;;4246053;33;20004;-78
2021/03/04 03:19:59;;;;;;;;;;;11.70;80.20;;;;;;4246700;33;20048;-78
2021/03/04 03:22:26;;;;;;;;;;;11.70;80.20;;;;;;4234315;33;20042;-78
2021/03/04 03:24:53;;;;;;;;;;;11.70;80.20;;;;;;4247584;33;20051;-78
2021/03/04 03:27:28;;;;;;;;;;;11.70;80.30;;;;;;4247601;33;20055;-77
2021/03/04 03:29:57;;;;;;;;;;;11.70;80.40;;;;;;4246170;33;20078;-78
2021/03/04 03:32:29;;;;;;;;;;;11.70;80.30;;;;;;4245943;33;20087;-77
2021/03/04 03:34:59;;;;;;;;;;;11.70;80.60;;;;;;4246530;33;20025;-78
2021/03/04 03:37:26;;;;;;;;;;;11.70;80.70;;;;;;4246899;33;20022;-77
2021/03/04 03:39:54;;;;;;;;;;;11.70;81.00;;;;;;4245719;33;20012;-78
2021/03/04 03:42:21;;;;;;;;;;;11.60;81.00;;;;;;4246266;33;20432;-78
2021/03/04 03:44:55;;;;;;;;;;;11.60;81.80;;;;;;4247523;33;20017;-77
2021/03/04 03:47:22;;;;;;;;;;;11.60;81.80;;;;;;4234497;33;20048;-76
2021/03/04 03:49:49;;;;;;;;;;;11.50;82.40;;;;;;4257848;33;20126;-76
2021/03/04 03:52:22;;;;;;;;;;;11.50;82.40;;;;;;4245985;33;20456;-77
2021/03/04 03:54:51;;;;;;;;;;;11.50;82.80;;;;;;4245529;33;20067;-77
2021/03/04 03:57:19;;;;;;;;;;;11.40;82.90;;;;;;4245974;33;20074;-76
2021/03/04 03:59:48;;;;;;;;;;;11.40;83.20;;;;;;4247055;33;20004;-76
2021/03/04 04:02:18;;;;;;;;;;;11.30;83.00;;;;;;4246724;33;20026;-76
2021/03/04 04:04:48;;;;;;;;;;;11.30;83.60;;;;;;4246515;33;20026;-76
2021/03/04 04:07:20;;;;;;;;;;;11.30;83.60;;;;;;4246103;33;20019;-76
2021/03/04 04:09:49;;;;;;;;;;;11.30;84.00;;;;;;4247382;33;20021;-76
2021/03/04 04:12:21;;;;;;;;;;;11.30;84.30;;;;;;4247038;33;20130;-76
2021/03/04 04:14:48;;;;;;;;;;;11.20;83.80;;;;;;4246884;33;20055;-76
2021/03/04 04:17:15;;;;;;;;;;;11.30;84.40;;;;;;4245678;33;20063;-75
2021/03/04 04:19:41;;;;;;;;;;;11.20;84.40;;;;;;4246764;33;20059;-76
2021/03/04 04:22:11;;;;;;;;;;;11.20;84.90;;;;;;4246684;33;20095;-76
2021/03/04 04:24:38;;;;;;;;;;;11.20;84.90;;;;;;4233317;33;20063;-76
2021/03/04 04:27:11;;;;;;;;;;;11.10;84.80;;;;;;4246446;33;20011;-76
2021/03/04 04:29:37;;;;;;;;;;;11.10;85.60;;;;;;4246476;33;20049;-76
2021/03/04 04:32:04;;;;;;;;;;;11.10;85.70;;;;;;4245093;33;20115;-76
2021/03/04 04:34:34;;;;;;;;;;;11.10;86.20;;;;;;4233613;33;20059;-75
2021/03/04 04:37:04;;;;;;;;;;;11.10;86.30;;;;;;4245740;33;20098;-75
2021/03/04 04:39:37;;;;;;;;;;;11.10;86.40;;;;;;4245771;33;20052;-76
2021/03/04 04:42:10;;;;;;;;;;;11.00;86.80;;;;;;4233414;33;20425;-76
2021/03/04 04:44:37;;;;;;;;;;;11.00;86.20;;;;;;4245201;33;20006;-76
2021/03/04 04:47:04;;;;;;;;;;;11.00;86.20;;;;;;4245965;33;20035;-76
2021/03/04 04:49:31;;;;;;;;;;;11.00;86.80;;;;;;4246044;33;20026;-76
2021/03/04 04:52:01;;;;;;;;;;;11.00;86.40;;;;;;4244857;33;20060;-76
2021/03/04 04:54:28;;;;;;;;;;;11.00;86.30;;;;;;4245249;33;20003;-76
2021/03/04 04:56:57;;;;;;;;;;;11.00;86.70;;;;;;4245415;33;20069;-76
2021/03/04 04:59:29;;;;;;;;;;;11.10;87.00;;;;;;4246311;33;20074;-76
2021/03/04 05:01:55;;;;;;;;;;;11.10;87.40;;;;;;4244885;33;20141;-75
2021/03/04 05:04:22;;;;;;;;;;;11.10;87.00;;;;;;4233178;33;19996;-76
2021/03/04 05:06:49;;;;;;;;;;;11.10;87.80;;;;;;4245899;33;20074;-75
2021/03/04 05:09:16;;;;;;;;;;;11.10;87.70;;;;;;4233231;33;20003;-75
2021/03/04 05:11:48;;;;;;;;;;;11.00;87.60;;;;;;4246105;33;20007;-75
2021/03/04 05:14:17;;;;;;;;;;;11.00;88.10;;;;;;4233413;33;20009;-75
2021/03/04 05:16:47;;;;;;;;;;;11.00;87.70;;;;;;4244565;33;20055;-75
2021/03/04 05:19:19;;;;;;;;;;;11.00;88.00;;;;;;4233193;33;20008;-75
2021/03/04 05:21:52;;;;;;;;;;;11.00;87.20;;;;;;4245830;33;20067;-75
2021/03/04 05:24:19;;;;;;;;;;;11.00;86.90;;;;;;4244807;33;20145;-75
2021/03/04 05:26:48;;;;;;;;;;;11.10;87.00;;;;;;4244880;33;20019;-75
2021/03/04 05:29:17;;;;;;;;;;;11.10;86.90;;;;;;4246087;33;20017;-75
2021/03/04 05:31:45;;;;;;;;;;;11.10;86.60;;;;;;4232635;33;20014;-76
2021/03/04 05:34:14;;;;;;;;;;;11.10;86.80;;;;;;4245807;33;20454;-76
2021/03/04 05:36:41;;;;;;;;;;;11.10;86.10;;;;;;4245681;33;20020;-75
2021/03/04 05:39:10;;;;;;;;;;;11.10;86.60;;;;;;4244340;33;20012;-75
2021/03/04 05:41:37;;;;;;;;;;;11.20;86.40;;;;;;4245816;33;20815;-76
2021/03/04 05:44:05;;;;;;;;;;;11.10;86.30;;;;;;4244296;33;20353;-76
2021/03/04 05:46:33;;;;;;;;;;;11.20;86.30;;;;;;4245787;33;20059;-76
2021/03/04 05:49:06;;;;;;;;;;;11.20;86.00;;;;;;4244615;33;20027;-76
2021/03/04 05:51:56;;;;;;;;;;;11.20;85.90;;;;;;4235087;33;20016;-76
2021/03/04 05:54:24;;;;;;;;;;;11.20;86.00;;;;;;4232996;33;20319;-76
2021/03/04 05:56:51;;;;;;;;;;;11.20;85.80;;;;;;4245236;33;20020;-76
2021/03/04 05:59:19;;;;;;;;;;;11.20;85.70;;;;;;4244690;33;20035;-76
2021/03/04 06:01:52;;;;;;;;;;;11.20;85.60;;;;;;4244335;33;20075;-76
2021/03/04 06:04:19;;;;;;;;;;;11.20;85.60;;;;;;4232283;33;20071;-77
2021/03/04 06:06:49;;;;;;;;;;;11.20;85.60;;;;;;4245162;33;20008;-76
2021/03/04 06:09:18;;;;;;;;;;;11.30;85.60;;;;;;4244136;33;20019;-76
2021/03/04 06:11:53;;;;;;;;;;;11.30;85.50;;;;;;4232623;33;20052;-76
2021/03/04 06:14:23;;;;;;;;;;;11.30;85.60;;;;;;4244745;33;20021;-76
2021/03/04 06:16:50;;;;;;;;;;;11.30;85.60;;;;;;4244475;33;20012;-77
2021/03/04 06:19:20;;;;;;;;;;;11.30;85.70;;;;;;4245041;33;20021;-76
2021/03/04 06:21:59;;;;;;;;;;;11.30;85.80;;;;;;4245644;33;20022;-76
2021/03/04 06:24:29;;;;;;;;;;;11.30;85.90;;;;;;4245486;33;19999;-76
2021/03/04 06:27:01;;;;;;;;;;;11.30;85.70;;;;;;4244044;33;20023;-76
2021/03/04 06:29:36;;;;;;;;;;;11.30;85.60;;;;;;4244369;33;20004;-76
2021/03/04 06:32:06;;;;;;;;;;;11.30;85.70;;;;;;4244256;33;20024;-76
2021/03/04 06:34:39;;;;;;;;;;;11.30;85.80;;;;;;4244457;33;20012;-76
2021/03/04 06:37:11;;;;;;;;;;;11.30;85.60;;;;;;4244477;33;20025;-76
2021/03/04 06:39:41;;;;;;;;;;;11.30;85.80;;;;;;4243982;33;27497;-75
2021/03/04 06:42:07;;;;;;;;;;;11.20;85.70;;;;;;4243027;33;28324;-76
2021/03/04 06:44:40;;;;;;;;;;;11.30;85.70;;;;;;4244377;33;20048;-75
2021/03/04 06:47:08;;;;;;;;;;;11.20;85.80;;;;;;4244934;33;32283;-76
2021/03/04 06:49:40;;;;;;;;;;;11.20;86.00;;;;;;4247199;33;23775;-76
2021/03/04 06:52:10;;;;;;;;;;;11.20;86.20;;;;;;4247642;33;20011;-75
2021/03/04 06:54:43;;;;;;;;;;;11.20;86.30;;;;;;4234277;33;25009;-77
2021/03/04 06:57:13;;;;;;;;;;;11.20;86.00;;;;;;4247089;33;30149;-76
2021/03/04 06:59:46;;;;;;;;;;;11.10;86.30;;;;;;4246606;33;27088;-76
2021/03/04 07:02:26;;;;;;;;;;;11.10;86.10;;;;;;4234897;33;20023;-76
2021/03/04 07:04:53;;;;;;;;;;;11.10;86.10;;;;;;4247097;33;21592;-76
2021/03/04 07:07:24;;;;;;;;;;;11.10;86.10;;;;;;4245876;33;31337;-76
2021/03/04 07:10:00;;;;;;;;;;;11.10;86.20;;;;;;4233878;33;30705;-76
2021/03/04 07:12:31;;;;;;;;;;;11.10;86.20;;;;;;4233843;33;37430;-75
2021/03/04 07:14:58;;;;;;;;;;;11.10;86.10;;;;;;4246994;33;22299;-76
2021/03/04 07:17:27;;;;;;;;;;;11.10;86.10;;;;;;4245872;33;23695;-76
2021/03/04 07:19:59;;;;;;;;;;;11.20;86.10;;;;;;4245726;33;27677;-76
2021/03/04 07:22:29;;;;;;;;;;;11.20;86.10;;;;;;4245393;33;30693;-75
2021/03/04 07:25:03;;;;;;;;;;;11.20;86.30;;;;;;4247024;33;20055;-76
2021/03/04 07:27:30;;;;;;;;;;;11.20;86.30;;;;;;4245962;33;20796;-76
2021/03/04 07:29:57;;;;;;;;;;;11.20;86.70;;;;;;4245418;33;20982;-76
2021/03/04 07:32:26;;;;;;;;;;;11.20;87.30;;;;;;4246401;33;20022;-76
2021/03/04 07:34:55;;;;;;;;;;;11.20;86.40;;;;;;4246708;33;30018;-76
2021/03/04 07:37:25;;;;;;;;;;;11.20;86.20;;;;;;4245348;33;30698;-76
2021/03/04 07:39:58;;;;;;;;;;;11.20;86.20;;;;;;4233870;33;26583;-76
2021/03/04 07:42:25;;;;;;;;;;;11.20;86.10;;;;;;4245366;33;31478;-76
2021/03/04 07:45:10;;;;;;;;;;;11.20;86.20;;;;;;4245532;33;24228;-76
2021/03/04 07:47:39;;;;;;;;;;;11.20;86.30;;;;;;4246592;33;35771;-75
2021/03/04 07:50:19;;;;;;;;;;;11.20;86.30;;;;;;4245605;33;29444;-76
2021/03/04 07:52:48;;;;;;;;;;;11.20;86.40;;;;;;4245673;33;20012;-76
2021/03/04 07:55:18;;;;;;;;;;;11.20;86.80;;;;;;4245720;33;20019;-76
2021/03/04 07:57:48;;;;;;;;;;;11.20;87.30;;;;;;4244778;33;26666;-76
2021/03/04 08:00:16;;;;;;;;;;;11.20;87.90;;;;;;4246389;33;34308;-76
2021/03/04 08:02:43;;;;;;;;;;;11.20;87.20;;;;;;4232425;33;42536;-76
2021/03/04 08:05:24;;;;;;;;;;;11.20;88.00;;;;;;4245782;33;35402;-75
2021/03/04 08:07:51;;;;;;;;;;;11.20;87.60;;;;;;4245460;33;20012;-76
2021/03/04 08:10:18;;;;;;;;;;;11.10;87.70;;;;;;4245988;33;37833;-75
2021/03/04 08:12:45;;;;;;;;;;;11.10;87.70;;;;;;4245414;33;20059;-75
2021/03/04 08:15:18;;;;;;;;;;;11.10;87.70;;;;;;4234152;33;20051;-75
2021/03/04 08:17:49;;;;;;;;;;;11.10;88.50;;;;;;4234080;33;19996;-77
2021/03/04 08:20:17;;;;;;;;;;;11.10;88.20;;;;;;4245779;33;20443;-77
2021/03/04 08:22:48;;;;;;;;;;;11.10;88.10;;;;;;4246813;33;20007;-77
2021/03/04 08:25:19;;;;;;;;;;;11.10;87.70;;;;;;4245415;33;20051;-77
2021/03/04 08:27:59;;;;;;;;;;;11.10;88.00;;;;;;4234341;33;20003;-77
2021/03/04 08:30:32;;;;;;;;;;;11.10;88.00;;;;;;4245637;33;39065;-77
2021/03/04 08:33:00;;;;;;;;;;;11.10;88.10;;;;;;4245231;33;20375;-78
2021/03/04 08:35:33;;;;;;;;;;;11.10;88.40;;;;;;4246650;33;20019;-77
2021/03/04 08:38:07;;;;;;;;;;;11.10;88.50;;;;;;4245514;33;38130;-77
2021/03/04 08:40:41;;;;;;;;;;;11.10;88.60;;;;;;4245196;33;20007;-78
2021/03/04 08:43:29;;;;;;;;;;;11.10;89.00;;;;;;4245461;33;20047;-78
2021/03/04 08:46:06;;;;;;;;;;;11.10;88.90;;;;;;4244310;33;41180;-78
2021/03/04 08:48:33;;;;;;;;;;;11.10;88.80;;;;;;4244227;33;41241;-77
2021/03/04 08:51:03;;;;;;;;;;;11.10;88.80;;;;;;4245509;33;33501;-78
2021/03/04 08:53:31;;;;;;;;;;;11.10;88.80;;;;;;4244626;33;20101;-78
2021/03/04 08:55:59;;;;;;;;;;;11.10;88.80;;;;;;4245798;33;20026;-78
2021/03/04 08:58:29;;;;;;;;;;;11.10;88.60;;;;;;4244607;33;20003;-78
2021/03/04 09:01:03;;;;;;;;;;;11.20;89.00;;;;;;4245189;33;27799;-78
2021/03/04 09:03:35;;;;;;;;;;;11.10;88.40;;;;;;4244183;33;27830;-78
2021/03/04 09:06:07;;;;;;;;;;;11.10;88.80;;;;;;4246323;33;20016;-78
2021/03/04 09:08:37;;;;;;;;;;;11.10;88.60;;;;;;4244879;33;20038;-78
2021/03/04 09:11:08;;;;;;;;;;;11.10;89.10;;;;;;4244886;33;20011;-78
2021/03/04 09:13:37;;;;;;;;;;;11.10;89.20;;;;;;4233417;33;20019;-78
2021/03/04 09:16:09;;;;;;;;;;;11.10;89.20;;;;;;4244791;33;20010;-78
2021/03/04 09:18:46;;;;;;;;;;;11.10;88.90;;;;;;4245063;33;20035;-78
2021/03/04 09:21:16;;;;;;;;;;;11.10;89.30;;;;;;4256793;33;20044;-78
2021/03/04 09:23:43;;;;;;;;;;;11.10;89.00;;;;;;4245273;33;20439;-78
2021/03/04 09:26:16;;;;;;;;;;;11.10;89.30;;;;;;4244055;33;32914;-77
2021/03/04 09:28:45;;;;;;;;;;;11.10;89.60;;;;;;4245238;33;21789;-78
2021/03/04 09:31:12;;;;;;;;;;;11.00;89.40;;;;;;4245848;33;20007;-78
2021/03/04 09:33:40;;;;;;;;;;;11.10;90.10;;;;;;4244202;33;20011;-77
2021/03/04 09:36:10;;;;;;;;;;;11.00;89.90;;;;;;4244656;33;25759;-78
2021/03/04 09:38:49;;;;;;;;;;;11.00;90.00;;;;;;4245665;33;20033;-78
2021/03/04 09:41:19;;;;;;;;;;;11.00;90.10;;;;;;4245921;33;20026;-78
2021/03/04 09:43:51;;;;;;;;;;;11.00;90.40;;;;;;4233174;33;20019;-77
2021/03/04 09:46:28;;;;;;;;;;;10.90;90.30;;;;;;4255938;33;20335;-78
2021/03/04 09:49:09;;;;;;;;;;;10.90;90.10;;;;;;4244504;33;20016;-78
2021/03/04 09:51:42;;;;;;;;;;;10.80;90.20;;;;;;4232576;33;19993;-78
2021/03/04 09:54:14;;;;;;;;;;;10.70;90.20;;;;;;4232980;33;20004;-78
2021/03/04 09:57:05;;;;;;;;;;;10.60;90.40;;;;;;4243570;33;29974;-78
2021/03/04 09:59:52;;;;;;;;;;;10.60;90.30;;;;;;4244418;33;31042;-78
2021/03/04 10:02:19;;;;;;;;;;;10.50;90.20;;;;;;4244427;33;36165;-77
2021/03/04 10:04:57;;;;;;;;;;;10.50;90.10;;;;;;4243948;33;22332;-78
2021/03/04 10:07:30;;;;;;;;;;;10.50;90.10;;;;;;4232789;33;20051;-77
2021/03/04 10:10:03;;;;;;;;;;;10.50;90.20;;;;;;4245462;33;20014;-77
2021/03/04 10:12:33;;;;;;;;;;;10.50;90.10;;;;;;4244900;33;29792;-78
2021/03/04 10:15:05;;;;;;;;;;;10.50;90.00;;;;;;4244511;33;20401;-77
2021/03/04 10:17:43;;;;;;;;;;;10.50;90.00;;;;;;4233374;33;20056;-77
2021/03/04 10:20:13;;;;;;;;;;;10.50;90.00;;;;;;4256428;33;20056;-77
2021/03/04 10:22:43;;;;;;;;;;;10.50;89.80;;;;;;4247980;33;20071;-77
2021/03/04 10:25:23;;;;;;;;;;;10.50;89.80;;;;;;4247177;33;20011;-77
2021/03/04 10:27:55;;;;;;;;;;;10.50;89.60;;;;;;4247280;33;20035;-77
2021/03/04 10:30:26;;;;;;;;;;;10.50;89.60;;;;;;4248104;33;20011;-77
2021/03/04 10:32:56;;;;;;;;;;;10.50;89.40;;;;;;4247278;33;20012;-77
2021/03/04 10:35:29;;;;;;;;;;;10.50;89.90;;;;;;4246813;33;20421;-77
2021/03/04 10:38:01;;;;;;;;;;;10.50;90.00;;;;;;4246659;33;20010;-78
2021/03/04 10:40:33;;;;;;;;;;;10.40;90.10;;;;;;4247147;33;20458;-78
2021/03/04 10:43:01;;;;;;;;;;;10.40;90.00;;;;;;4247249;33;20123;-78
2021/03/04 10:45:30;;;;;;;;;;;10.40;90.10;;;;;;4258404;33;20025;-77
2021/03/04 10:48:00;;;;;;;;;;;10.30;90.00;;;;;;4248027;33;20090;-77
2021/03/04 10:50:29;;;;;;;;;;;10.30;90.10;;;;;;4246907;33;20067;-78
2021/03/04 10:52:58;;;;;;;;;;;10.30;90.10;;;;;;4247644;33;20055;-77
2021/03/04 10:55:42;;;;;;;;;;;10.30;90.10;;;;;;4247066;33;20342;-78
2021/03/04 10:58:12;;;;;;;;;;;10.20;90.20;;;;;;4258728;33;20029;-78
2021/03/04 11:00:44;;;;;;;;;;;10.10;90.20;;;;;;4247894;33;20067;-78
2021/03/04 11:03:14;;;;;;;;;;;10.10;90.40;;;;;;4234727;33;20518;-77
2021/03/04 11:05:49;;;;;;;;;;;10.00;90.40;;;;;;4247667;33;20012;-77
2021/03/04 11:08:19;;;;;;;;;;;9.90;90.40;;;;;;4246857;33;20068;-77
2021/03/04 11:10:49;;;;;;;;;;;9.90;90.50;;;;;;4246535;33;20067;-77
2021/03/04 11:13:19;;;;;;;;;;;9.80;90.50;;;;;;4246154;33;20051;-77
2021/03/04 11:15:45;;;;;;;;;;;9.80;90.50;;;;;;4246694;33;20078;-79
2021/03/04 11:18:13;;;;;;;;;;;9.80;90.50;;;;;;4234497;33;20061;-79
2021/03/04 11:20:43;;;;;;;;;;;9.80;90.60;;;;;;4246425;33;20051;-77
2021/03/04 11:23:15;;;;;;;;;;;9.80;90.50;;;;;;4246564;33;20047;-77
2021/03/04 11:26:02;;;;;;;;;;;9.80;90.50;;;;;;4246758;33;20395;-77
2021/03/04 11:28:32;;;;;;;;;;;9.80;90.60;;;;;;4247162;33;20029;-78
2021/03/04 11:31:01;;;;;;;;;;;9.70;90.50;;;;;;4246794;33;34410;-77
2021/03/04 11:33:30;;;;;;;;;;;9.70;90.40;;;;;;4255983;33;26144;-77
2021/03/04 11:35:57;;;;;;;;;;;9.70;90.60;;;;;;4245494;33;22574;-77
2021/03/04 11:38:23;;;;;;;;;;;9.60;90.50;;;;;;4246147;33;27966;-77
2021/03/04 11:40:53;;;;;;;;;;;9.60;90.50;;;;;;4246754;33;20015;-77
2021/03/04 11:43:19;;;;;;;;;;;9.60;90.40;;;;;;4246297;33;27139;-77
2021/03/04 11:45:52;;;;;;;;;;;9.60;90.40;;;;;;4245959;33;20011;-77
2021/03/04 11:48:21;;;;;;;;;;;9.60;90.40;;;;;;4245678;33;20094;-77
2021/03/04 11:50:50;;;;;;;;;;;9.60;90.30;;;;;;4246397;33;32445;-77
2021/03/04 11:53:17;;;;;;;;;;;9.60;90.40;;;;;;4245219;33;32754;-77
2021/03/04 11:55:46;;;;;;;;;;;9.60;90.30;;;;;;4245957;33;20019;-76
2021/03/04 11:58:16;;;;;;;;;;;9.60;90.30;;;;;;4244987;33;26333;-76
2021/03/04 12:00:43;;;;;;;;;;;9.60;90.30;;;;;;4244884;33;39089;-77
2021/03/04 12:03:10;;;;;;;;;;;9.50;90.30;;;;;;4233888;33;20041;-77
2021/03/04 12:05:36;;;;;;;;;;;9.50;90.30;;;;;;4245553;33;20075;-77
2021/03/04 12:08:09;;;;;;;;;;;9.50;90.30;;;;;;4246495;33;20051;-77
2021/03/04 12:11:01;;;;;;;;;;;9.50;90.30;;;;;;4245567;33;20027;-77
2021/03/04 12:13:31;;;;;;;;;;;9.50;90.40;;;;;;4246378;33;23265;-77
2021/03/04 12:16:05;;;;;;;;;;;9.40;90.30;;;;;;4246624;33;20375;-77
2021/03/04 12:18:38;;;;;;;;;;;9.40;90.50;;;;;;4234185;33;20003;-76
2021/03/04 12:21:08;;;;;;;;;;;9.40;90.30;;;;;;4246858;33;20019;-76
2021/03/04 12:23:38;;;;;;;;;;;9.40;90.30;;;;;;4246133;33;20451;-77
2021/03/04 12:26:04;;;;;;;;;;;9.40;90.30;;;;;;4246211;33;21983;-77
2021/03/04 12:28:43;;;;;;;;;;;9.40;90.30;;;;;;4244778;33;31174;-77
2021/03/04 12:31:09;;;;;;;;;;;9.50;90.30;;;;;;4244667;33;30364;-77
2021/03/04 12:33:36;;;;;;;;;;;9.40;90.20;;;;;;4244319;33;22484;-77
2021/03/04 12:36:04;;;;;;;;;;;9.40;90.10;;;;;;4245099;33;20311;-77
2021/03/04 12:38:32;;;;;;;;;;;9.50;90.20;;;;;;4245247;33;29157;-77
2021/03/04 12:41:02;;;;;;;;;;;9.50;90.10;;;;;;4245217;33;30149;-77
2021/03/04 12:43:32;;;;;;;;;;;9.50;90.10;;;;;;4244482;33;29043;-77
2021/03/04 12:46:01;;;;;;;;;;;9.50;90.00;;;;;;4232906;33;20008;-76
2021/03/04 12:48:28;;;;;;;;;;;9.50;90.10;;;;;;4245891;33;20011;-77
2021/03/04 12:51:02;;;;;;;;;;;9.50;90.00;;;;;;4233761;33;20357;-77
2021/03/04 12:53:34;;;;;;;;;;;9.50;90.00;;;;;;4245335;33;20008;-77
2021/03/04 12:56:25;;;;;;;;;;;9.40;89.90;;;;;;4245846;33;20008;-76
2021/03/04 12:59:10;;;;;;;;;;;9.50;89.90;;;;;;4256785;33;20060;-77
2021/03/04 13:01:40;;;;;;;;;;;9.50;90.00;;;;;;4244582;33;20404;-77
2021/03/04 13:04:09;;;;;;;;;;;9.50;89.80;;;;;;4246156;33;20029;-77
2021/03/04 13:06:39;;;;;;;;;;;9.40;89.90;;;;;;4245035;33;20019;-77
2021/03/04 13:09:11;;;;;;;;;;;9.50;89.90;;;;;;4245031;33;20375;-77
2021/03/04 13:11:42;;;;;;;;;;;9.50;90.00;;;;;;4233699;33;20007;-77
2021/03/04 13:14:09;;;;;;;;;;;9.50;90.00;;;;;;4244908;33;20016;-77
2021/03/04 13:16:39;;;;;;;;;;;9.40;89.80;;;;;;4244821;33;20004;-77
2021/03/04 13:19:11;;;;;;;;;;;9.40;89.80;;;;;;4233218;33;20430;-77
2021/03/04 13:21:41;;;;;;;;;;;9.40;89.90;;;;;;4245222;33;20624;-77
2021/03/04 13:24:08;;;;;;;;;;;9.40;90.00;;;;;;4246165;33;20401;-77
2021/03/04 13:26:41;;;;;;;;;;;9.40;90.00;;;;;;4244950;33;20402;-77
2021/03/04 13:29:10;;;;;;;;;;;9.40;90.00;;;;;;4244760;33;20047;-77
2021/03/04 13:31:44;;;;;;;;;;;9.30;90.00;;;;;;4244839;33;20090;-78
2021/03/04 13:34:44;;;;;;;;;;;9.30;90.00;;;;;;4244653;33;20047;-77
2021/03/04 13:37:16;;;;;;;;;;;9.30;90.10;;;;;;4233193;33;20339;-77
2021/03/04 13:39:43;;;;;;;;;;;9.30;90.10;;;;;;4244810;33;20019;-77
2021/03/04 13:42:13;;;;;;;;;;;9.10;90.20;;;;;;4232946;33;20047;-76
2021/03/04 13:44:43;;;;;;;;;;;9.20;90.20;;;;;;4244735;33;20063;-76
2021/03/04 13:47:10;;;;;;;;;;;9.10;90.20;;;;;;4244544;33;19996;-77
2021/03/04 13:49:37;;;;;;;;;;;9.10;90.30;;;;;;4245542;33;20050;-77
2021/03/04 13:52:04;;;;;;;;;;;9.10;90.30;;;;;;4245685;33;20018;-77
2021/03/04 13:54:30;;;;;;;;;;;9.00;90.30;;;;;;4244362;33;20401;-76
2021/03/04 13:56:58;;;;;;;;;;;9.00;90.20;;;;;;4245179;33;20055;-77
2021/03/04 13:59:25;;;;;;;;;;;9.00;90.20;;;;;;4244875;33;20016;-77
2021/03/04 14:01:52;;;;;;;;;;;9.00;90.20;;;;;;4244093;33;20062;-77
2021/03/04 14:04:24;;;;;;;;;;;9.00;90.30;;;;;;4232958;33;19999;-77
2021/03/04 14:07:02;;;;;;;;;;;9.00;90.30;;;;;;4245482;33;20015;-77
2021/03/04 14:09:29;;;;;;;;;;;9.00;90.30;;;;;;4244413;33;20346;-77
2021/03/04 14:12:06;;;;;;;;;;;9.00;90.30;;;;;;4245412;33;20338;-77
2021/03/04 14:14:37;;;;;;;;;;;9.00;90.20;;;;;;4244456;33;20118;-76
2021/03/04 14:17:25;;;;;;;;;;;9.00;90.20;;;;;;4238218;33;20462;-77
2021/03/04 14:20:05;;;;;;;;;;;9.00;90.20;;;;;;4243971;33;20034;-77
2021/03/04 14:22:40;;;;;;;;;;;9.00;90.20;;;;;;4245760;33;20060;-77
2021/03/04 14:25:09;;;;;;;;;;;9.00;90.10;;;;;;4245432;33;20012;-77
2021/03/04 14:27:46;;;;;;;;;;;9.10;90.20;;;;;;4244448;33;20031;-77
2021/03/04 14:30:23;;;;;;;;;;;9.00;90.10;;;;;;4245166;33;20007;-77
2021/03/04 14:33:25;;;;;;;;;;;9.00;90.30;;;;;;4234395;33;20410;-76
2021/03/04 14:36:06;;;;;;;;;;;9.00;90.20;;;;;;4232774;33;19996;-76
2021/03/04 14:39:07;;;;;;;;;;;9.00;90.20;;;;;;4233445;33;20131;-76
2021/03/04 14:41:42;;;;;;;;;;;9.00;90.10;;;;;;4232348;33;20011;-77